sensor_id;sensor_type;location;lat;lon;timestamp;temperature;humidity
4725;DHT22;2376;53.544;10.226;2023-03-01T00:00:38;2.80;99.90
4725;DHT22;2376;53.544;10.226;2023-03-01T00:03:05;2.80;99.90
4725;DHT22;2376;53.544;10.226;2023-03-01T00:05:31;2.80;99.90
4725;DHT22;2376;53.544;10.226;2023-03-01T00:07:58;2.80;99.90
4725;DHT22;2376;53.544;10.226;2023-03-01T00:10:26;2.80;99.90
4725;DHT22;2376;53.544;10.226;2023-03-01T00:12:53;2.80;99.90
4725;DHT22;2376;53.544;10.226;2023-03-01T00:15:21;2.80;99.90
4725;DHT22;2376;53.544;10.226;2023-03-01T00:17:48;2.80;99.90
4725;DHT22;2376;53.544;10.226;2023-03-01T00:20:15;2.80;99.90
4725;DHT22;2376;53.544;10.226;2023-03-01T00:22:42;2.80;99.90
4725;DHT22;2376;53.544;10.226;2023-03-01T00:25:09;2.80;99.90
4725;DHT22;2376;53.544;10.226;2023-03-01T00:27:37;2.80;99.90
4725;DHT22;2376;53.544;10.226;2023-03-01T00:30:04;2.80;99.90
4725;DHT22;2376;53.544;10.226;2023-03-01T00:32:31;2.80;99.90
4725;DHT22;2376;53.544;10.226;2023-03-01T00:34:58;2.70;99.90
4725;DHT22;2376;53.544;10.226;2023-03-01T00:37:24;2.70;99.90
4725;DHT22;2376;53.544;10.226;2023-03-01T00:39:51;2.70;99.90
4725;DHT22;2376;53.544;10.226;2023-03-01T00:42:18;2.70;99.90
4725;DHT22;2376;53.544;10.226;2023-03-01T00:44:46;2.60;99.90
4725;DHT22;2376;53.544;10.226;2023-03-01T00:47:12;2.60;99.90
4725;DHT22;2376;53.544;10.226;2023-03-01T00:49:39;2.60;99.90
4725;DHT22;2376;53.544;10.226;2023-03-01T00:52:06;2.50;99.90
4725;DHT22;2376;53.544;10.226;2023-03-01T00:54:32;2.50;99.90
4725;DHT22;2376;53.544;10.226;2023-03-01T00:56:59;2.50;99.90
4725;DHT22;2376;53.544;10.226;2023-03-01T00:59:26;2.50;99.90
4725;DHT22;2376;53.544;10.226;2023-03-01T01:01:54;2.50;99.90
4725;DHT22;2376;53.544;10.226;2023-03-01T01:04:20;2.40;99.90
4725;DHT22;2376;53.544;10.226;2023-03-01T01:06:47;2.40;99.90
4725;DHT22;2376;53.544;10.226;2023-03-01T01:09:16;2.40;99.90
4725;DHT22;2376;53.544;10.226;2023-03-01T01:11:44;2.50;99.90
4725;DHT22;2376;53.544;10.226;2023-03-01T01:14:10;2.50;99.90
4725;DHT22;2376;53.544;10.226;2023-03-01T01:16:37;2.50;99.90
4725;DHT22;2376;53.544;10.226;2023-03-01T01:19:06;2.40;99.90
4725;DHT22;2376;53.544;10.226;2023-03-01T01:21:33;2.40;99.90
4725;DHT22;2376;53.544;10.226;2023-03-01T01:23:59;2.40;99.90
4725;DHT22;2376;53.544;10.226;2023-03-01T01:26:28;2.40;99.90
4725;DHT22;2376;53.544;10.226;2023-03-01T01:28:55;2.40;99.90
4725;DHT22;2376;53.544;10.226;2023-03-01T01:31:23;2.30;99.90
4725;DHT22;2376;53.544;10.226;2023-03-01T01:33:50;2.30;99.90
4725;DHT22;2376;53.544;10.226;2023-03-01T01:36:18;2.40;99.90
4725;DHT22;2376;53.544;10.226;2023-03-01T01:38:45;2.40;99.90
4725;DHT22;2376;53.544;10.226;2023-03-01T01:41:13;2.30;99.90
4725;DHT22;2376;53.544;10.226;2023-03-01T01:43:43;2.30;99.90
4725;DHT22;2376;53.544;10.226;2023-03-01T01:46:17;2.30;99.90
4725;DHT22;2376;53.544;10.226;2023-03-01T01:48:47;2.30;99.90
4725;DHT22;2376;53.544;10.226;2023-03-01T01:51:20;2.30;99.90
4725;DHT22;2376;53.544;10.226;2023-03-01T01:53:54;2.30;99.90
4725;DHT22;2376;53.544;10.226;2023-03-01T01:56:24;2.30;99.90
4725;DHT22;2376;53.544;10.226;2023-03-01T01:58:52;2.30;99.90
4725;DHT22;2376;53.544;10.226;2023-03-01T02:01:19;2.30;99.90
4725;DHT22;2376;53.544;10.226;2023-03-01T02:03:46;2.30;99.90
4725;DHT22;2376;53.544;10.226;2023-03-01T02:06:18;2.30;99.90
4725;DHT22;2376;53.544;10.226;2023-03-01T02:08:49;2.30;99.90
4725;DHT22;2376;53.544;10.226;2023-03-01T02:11:17;2.30;99.90
4725;DHT22;2376;53.544;10.226;2023-03-01T02:13:44;2.30;99.90
4725;DHT22;2376;53.544;10.226;2023-03-01T02:16:14;2.20;99.90
4725;DHT22;2376;53.544;10.226;2023-03-01T02:18:42;2.20;99.90
4725;DHT22;2376;53.544;10.226;2023-03-01T02:21:17;2.20;99.90
4725;DHT22;2376;53.544;10.226;2023-03-01T02:23:47;2.20;99.90
4725;DHT22;2376;53.544;10.226;2023-03-01T02:26:20;2.30;99.90
4725;DHT22;2376;53.544;10.226;2023-03-01T02:28:50;2.30;99.90
4725;DHT22;2376;53.544;10.226;2023-03-01T02:31:19;2.30;99.90
4725;DHT22;2376;53.544;10.226;2023-03-01T02:34:05;2.40;99.90
4725;DHT22;2376;53.544;10.226;2023-03-01T02:36:35;2.40;99.90
4725;DHT22;2376;53.544;10.226;2023-03-01T02:39:05;2.40;99.90
4725;DHT22;2376;53.544;10.226;2023-03-01T02:44:50;2.40;99.90
4725;DHT22;2376;53.544;10.226;2023-03-01T02:47:17;2.40;99.90
4725;DHT22;2376;53.544;10.226;2023-03-01T02:49:43;2.40;99.90
4725;DHT22;2376;53.544;10.226;2023-03-01T02:52:22;2.40;99.90
4725;DHT22;2376;53.544;10.226;2023-03-01T02:54:56;2.40;99.90
4725;DHT22;2376;53.544;10.226;2023-03-01T02:57:25;2.40;99.90
4725;DHT22;2376;53.544;10.226;2023-03-01T02:59:54;2.50;99.90
4725;DHT22;2376;53.544;10.226;2023-03-01T03:02:24;2.50;99.90
4725;DHT22;2376;53.544;10.226;2023-03-01T03:05:02;2.50;99.90
4725;DHT22;2376;53.544;10.226;2023-03-01T03:07:32;2.50;99.90
4725;DHT22;2376;53.544;10.226;2023-03-01T03:09:59;2.50;99.90
4725;DHT22;2376;53.544;10.226;2023-03-01T03:12:25;2.60;99.90
4725;DHT22;2376;53.544;10.226;2023-03-01T03:14:53;2.50;99.90
4725;DHT22;2376;53.544;10.226;2023-03-01T03:17:20;2.50;99.90
4725;DHT22;2376;53.544;10.226;2023-03-01T03:19:47;2.60;99.90
4725;DHT22;2376;53.544;10.226;2023-03-01T03:22:14;2.60;99.90
4725;DHT22;2376;53.544;10.226;2023-03-01T03:24:41;2.60;99.90
4725;DHT22;2376;53.544;10.226;2023-03-01T03:27:07;2.60;99.90
4725;DHT22;2376;53.544;10.226;2023-03-01T03:29:34;2.60;99.90
4725;DHT22;2376;53.544;10.226;2023-03-01T03:32:03;2.50;99.90
4725;DHT22;2376;53.544;10.226;2023-03-01T03:34:30;2.50;99.90
4725;DHT22;2376;53.544;10.226;2023-03-01T03:36:57;2.60;99.90
4725;DHT22;2376;53.544;10.226;2023-03-01T03:39:25;2.60;99.90
4725;DHT22;2376;53.544;10.226;2023-03-01T03:41:52;2.60;99.90
4725;DHT22;2376;53.544;10.226;2023-03-01T03:44:20;2.70;99.90
4725;DHT22;2376;53.544;10.226;2023-03-01T03:46:46;2.70;99.90
4725;DHT22;2376;53.544;10.226;2023-03-01T03:49:15;2.70;99.90
4725;DHT22;2376;53.544;10.226;2023-03-01T03:51:41;2.70;99.90
4725;DHT22;2376;53.544;10.226;2023-03-01T03:54:08;2.80;99.90
4725;DHT22;2376;53.544;10.226;2023-03-01T03:56:36;2.80;99.90
4725;DHT22;2376;53.544;10.226;2023-03-01T03:59:03;2.80;99.90
4725;DHT22;2376;53.544;10.226;2023-03-01T04:01:31;2.80;99.90
4725;DHT22;2376;53.544;10.226;2023-03-01T04:03:58;2.80;99.90
4725;DHT22;2376;53.544;10.226;2023-03-01T04:06:31;2.90;99.90
4725;DHT22;2376;53.544;10.226;2023-03-01T04:08:57;2.90;99.90
4725;DHT22;2376;53.544;10.226;2023-03-01T04:11:26;2.90;99.90
4725;DHT22;2376;53.544;10.226;2023-03-01T04:13:54;2.90;99.90
4725;DHT22;2376;53.544;10.226;2023-03-01T04:16:21;3.00;99.90
4725;DHT22;2376;53.544;10.226;2023-03-01T04:18:49;3.00;99.90
4725;DHT22;2376;53.544;10.226;2023-03-01T04:21:15;3.00;99.90
4725;DHT22;2376;53.544;10.226;2023-03-01T04:23:43;3.00;99.90
4725;DHT22;2376;53.544;10.226;2023-03-01T04:26:10;3.00;99.90
4725;DHT22;2376;53.544;10.226;2023-03-01T04:28:39;3.10;99.90
4725;DHT22;2376;53.544;10.226;2023-03-01T04:31:09;3.10;99.90
4725;DHT22;2376;53.544;10.226;2023-03-01T04:33:39;3.10;99.90
4725;DHT22;2376;53.544;10.226;2023-03-01T04:36:08;3.10;99.90
4725;DHT22;2376;53.544;10.226;2023-03-01T04:38:35;3.10;99.90
4725;DHT22;2376;53.544;10.226;2023-03-01T04:41:05;3.20;99.90
4725;DHT22;2376;53.544;10.226;2023-03-01T04:43:32;3.20;99.90
4725;DHT22;2376;53.544;10.226;2023-03-01T04:46:03;3.20;99.90
4725;DHT22;2376;53.544;10.226;2023-03-01T04:48:31;3.20;99.90
4725;DHT22;2376;53.544;10.226;2023-03-01T04:50:59;3.20;99.90
4725;DHT22;2376;53.544;10.226;2023-03-01T04:53:26;3.30;99.90
4725;DHT22;2376;53.544;10.226;2023-03-01T04:55:54;3.30;99.90
4725;DHT22;2376;53.544;10.226;2023-03-01T04:58:22;3.30;99.90
4725;DHT22;2376;53.544;10.226;2023-03-01T05:00:49;3.30;99.90
4725;DHT22;2376;53.544;10.226;2023-03-01T05:03:16;3.30;99.90
4725;DHT22;2376;53.544;10.226;2023-03-01T05:05:44;3.40;99.90
4725;DHT22;2376;53.544;10.226;2023-03-01T05:08:12;3.40;99.90
4725;DHT22;2376;53.544;10.226;2023-03-01T05:10:43;3.40;99.90
4725;DHT22;2376;53.544;10.226;2023-03-01T05:13:11;3.30;99.90
4725;DHT22;2376;53.544;10.226;2023-03-01T05:15:41;3.30;99.90
4725;DHT22;2376;53.544;10.226;2023-03-01T05:18:08;3.40;99.90
4725;DHT22;2376;53.544;10.226;2023-03-01T05:20:37;3.40;99.90
4725;DHT22;2376;53.544;10.226;2023-03-01T05:23:04;3.50;99.90
4725;DHT22;2376;53.544;10.226;2023-03-01T05:25:33;3.50;99.90
4725;DHT22;2376;53.544;10.226;2023-03-01T05:28:00;3.50;99.90
4725;DHT22;2376;53.544;10.226;2023-03-01T05:30:30;3.50;99.90
4725;DHT22;2376;53.544;10.226;2023-03-01T05:32:58;3.60;99.90
4725;DHT22;2376;53.544;10.226;2023-03-01T05:35:25;3.50;99.90
4725;DHT22;2376;53.544;10.226;2023-03-01T05:37:52;3.50;99.90
4725;DHT22;2376;53.544;10.226;2023-03-01T05:40:20;3.60;99.90
4725;DHT22;2376;53.544;10.226;2023-03-01T05:42:49;3.60;99.90
4725;DHT22;2376;53.544;10.226;2023-03-01T05:45:17;3.60;99.90
4725;DHT22;2376;53.544;10.226;2023-03-01T05:47:45;3.60;99.90
4725;DHT22;2376;53.544;10.226;2023-03-01T05:50:16;3.70;99.90
4725;DHT22;2376;53.544;10.226;2023-03-01T05:52:45;3.70;99.90
4725;DHT22;2376;53.544;10.226;2023-03-01T05:55:12;3.70;99.90
4725;DHT22;2376;53.544;10.226;2023-03-01T05:57:39;3.70;99.90
4725;DHT22;2376;53.544;10.226;2023-03-01T06:00:07;3.80;99.90
4725;DHT22;2376;53.544;10.226;2023-03-01T06:02:34;3.80;99.90
4725;DHT22;2376;53.544;10.226;2023-03-01T06:05:06;3.90;99.90
4725;DHT22;2376;53.544;10.226;2023-03-01T06:07:36;3.80;99.90
4725;DHT22;2376;53.544;10.226;2023-03-01T06:10:08;3.80;99.90
4725;DHT22;2376;53.544;10.226;2023-03-01T06:12:37;3.80;99.90
4725;DHT22;2376;53.544;10.226;2023-03-01T06:15:08;3.80;99.90
4725;DHT22;2376;53.544;10.226;2023-03-01T06:17:36;3.90;99.90
4725;DHT22;2376;53.544;10.226;2023-03-01T06:20:04;3.90;99.90
4725;DHT22;2376;53.544;10.226;2023-03-01T06:22:31;3.90;99.90
4725;DHT22;2376;53.544;10.226;2023-03-01T06:25:03;3.90;99.90
4725;DHT22;2376;53.544;10.226;2023-03-01T06:27:30;4.00;99.90
4725;DHT22;2376;53.544;10.226;2023-03-01T06:29:56;4.00;99.90
4725;DHT22;2376;53.544;10.226;2023-03-01T06:32:23;4.00;99.90
4725;DHT22;2376;53.544;10.226;2023-03-01T06:34:50;4.00;99.90
4725;DHT22;2376;53.544;10.226;2023-03-01T06:37:17;4.00;99.90
4725;DHT22;2376;53.544;10.226;2023-03-01T06:39:44;4.00;99.90
4725;DHT22;2376;53.544;10.226;2023-03-01T06:42:13;4.00;99.90
4725;DHT22;2376;53.544;10.226;2023-03-01T06:44:40;4.00;99.90
4725;DHT22;2376;53.544;10.226;2023-03-01T06:47:07;4.00;99.90
4725;DHT22;2376;53.544;10.226;2023-03-01T06:49:34;4.00;99.90
4725;DHT22;2376;53.544;10.226;2023-03-01T06:52:01;4.00;99.90
4725;DHT22;2376;53.544;10.226;2023-03-01T06:54:27;4.00;99.90
4725;DHT22;2376;53.544;10.226;2023-03-01T06:56:54;4.00;99.90
4725;DHT22;2376;53.544;10.226;2023-03-01T06:59:22;4.00;99.90
4725;DHT22;2376;53.544;10.226;2023-03-01T07:01:49;4.10;99.90
4725;DHT22;2376;53.544;10.226;2023-03-01T07:04:15;4.10;99.90
4725;DHT22;2376;53.544;10.226;2023-03-01T07:06:42;4.10;99.90
4725;DHT22;2376;53.544;10.226;2023-03-01T07:09:09;4.10;99.90
4725;DHT22;2376;53.544;10.226;2023-03-01T07:11:35;4.20;99.90
4725;DHT22;2376;53.544;10.226;2023-03-01T07:14:02;4.20;99.90
4725;DHT22;2376;53.544;10.226;2023-03-01T07:16:30;4.30;99.90
4725;DHT22;2376;53.544;10.226;2023-03-01T07:18:57;4.30;99.90
4725;DHT22;2376;53.544;10.226;2023-03-01T07:21:24;4.30;99.90
4725;DHT22;2376;53.544;10.226;2023-03-01T07:23:51;4.40;99.90
4725;DHT22;2376;53.544;10.226;2023-03-01T07:26:17;4.40;99.90
4725;DHT22;2376;53.544;10.226;2023-03-01T07:28:44;4.40;99.90
4725;DHT22;2376;53.544;10.226;2023-03-01T07:31:11;4.40;99.90
4725;DHT22;2376;53.544;10.226;2023-03-01T07:33:39;4.50;99.90
4725;DHT22;2376;53.544;10.226;2023-03-01T07:36:07;4.50;99.90
4725;DHT22;2376;53.544;10.226;2023-03-01T07:38:34;4.50;99.90
4725;DHT22;2376;53.544;10.226;2023-03-01T07:41:02;4.50;99.90
4725;DHT22;2376;53.544;10.226;2023-03-01T07:43:30;4.60;99.90
4725;DHT22;2376;53.544;10.226;2023-03-01T07:45:58;4.70;99.90
4725;DHT22;2376;53.544;10.226;2023-03-01T07:48:25;4.70;99.90
4725;DHT22;2376;53.544;10.226;2023-03-01T07:50:53;4.60;99.90
4725;DHT22;2376;53.544;10.226;2023-03-01T07:53:20;4.70;99.90
4725;DHT22;2376;53.544;10.226;2023-03-01T07:55:47;4.70;99.90
4725;DHT22;2376;53.544;10.226;2023-03-01T07:58:14;4.90;99.90
4725;DHT22;2376;53.544;10.226;2023-03-01T08:00:40;4.90;99.90
4725;DHT22;2376;53.544;10.226;2023-03-01T08:03:07;5.00;99.90
4725;DHT22;2376;53.544;10.226;2023-03-01T08:05:34;5.00;99.90
4725;DHT22;2376;53.544;10.226;2023-03-01T08:08:03;5.10;99.90
4725;DHT22;2376;53.544;10.226;2023-03-01T08:10:30;5.20;99.90
4725;DHT22;2376;53.544;10.226;2023-03-01T08:12:57;5.20;99.90
4725;DHT22;2376;53.544;10.226;2023-03-01T08:15:23;5.20;99.90
4725;DHT22;2376;53.544;10.226;2023-03-01T08:17:50;5.30;99.90
4725;DHT22;2376;53.544;10.226;2023-03-01T08:20:17;5.30;99.90
4725;DHT22;2376;53.544;10.226;2023-03-01T08:22:44;5.50;99.90
4725;DHT22;2376;53.544;10.226;2023-03-01T08:25:12;5.50;99.90
4725;DHT22;2376;53.544;10.226;2023-03-01T08:27:39;5.60;99.90
4725;DHT22;2376;53.544;10.226;2023-03-01T08:30:07;5.80;99.90
4725;DHT22;2376;53.544;10.226;2023-03-01T08:32:38;5.90;99.90
4725;DHT22;2376;53.544;10.226;2023-03-01T08:35:06;5.90;99.90
4725;DHT22;2376;53.544;10.226;2023-03-01T08:37:32;5.90;99.90
4725;DHT22;2376;53.544;10.226;2023-03-01T08:40:00;6.00;99.90
4725;DHT22;2376;53.544;10.226;2023-03-01T08:42:30;6.10;99.90
4725;DHT22;2376;53.544;10.226;2023-03-01T08:44:56;6.10;99.90
4725;DHT22;2376;53.544;10.226;2023-03-01T08:47:23;6.10;99.90
4725;DHT22;2376;53.544;10.226;2023-03-01T08:49:51;6.30;99.90
4725;DHT22;2376;53.544;10.226;2023-03-01T08:52:19;6.30;99.90
4725;DHT22;2376;53.544;10.226;2023-03-01T08:54:47;6.30;99.90
4725;DHT22;2376;53.544;10.226;2023-03-01T08:57:14;6.30;99.90
4725;DHT22;2376;53.544;10.226;2023-03-01T08:59:42;6.30;99.90
4725;DHT22;2376;53.544;10.226;2023-03-01T09:02:12;6.40;99.90
4725;DHT22;2376;53.544;10.226;2023-03-01T09:04:40;6.50;99.90
4725;DHT22;2376;53.544;10.226;2023-03-01T09:07:07;6.50;99.90
4725;DHT22;2376;53.544;10.226;2023-03-01T09:09:34;6.60;99.90
4725;DHT22;2376;53.544;10.226;2023-03-01T09:12:03;6.60;99.90
4725;DHT22;2376;53.544;10.226;2023-03-01T09:14:30;6.70;99.90
4725;DHT22;2376;53.544;10.226;2023-03-01T09:16:58;6.80;99.90
4725;DHT22;2376;53.544;10.226;2023-03-01T09:19:28;6.90;99.90
4725;DHT22;2376;53.544;10.226;2023-03-01T09:21:54;6.90;99.90
4725;DHT22;2376;53.544;10.226;2023-03-01T09:24:24;7.00;99.90
4725;DHT22;2376;53.544;10.226;2023-03-01T09:26:53;7.00;99.90
4725;DHT22;2376;53.544;10.226;2023-03-01T09:29:20;7.10;99.90
4725;DHT22;2376;53.544;10.226;2023-03-01T09:31:47;7.30;99.90
4725;DHT22;2376;53.544;10.226;2023-03-01T09:34:15;7.40;99.90
4725;DHT22;2376;53.544;10.226;2023-03-01T09:36:44;7.40;99.90
4725;DHT22;2376;53.544;10.226;2023-03-01T09:39:11;7.40;99.90
4725;DHT22;2376;53.544;10.226;2023-03-01T09:41:44;7.50;99.90
4725;DHT22;2376;53.544;10.226;2023-03-01T09:47:12;7.30;99.90
4725;DHT22;2376;53.544;10.226;2023-03-01T09:49:43;7.30;99.90
4725;DHT22;2376;53.544;10.226;2023-03-01T09:52:20;7.50;99.90
4725;DHT22;2376;53.544;10.226;2023-03-01T09:54:52;7.20;99.90
4725;DHT22;2376;53.544;10.226;2023-03-01T09:57:26;7.60;99.90
4725;DHT22;2376;53.544;10.226;2023-03-01T10:00:18;7.80;99.90
4725;DHT22;2376;53.544;10.226;2023-03-01T10:02:51;7.90;99.90
4725;DHT22;2376;53.544;10.226;2023-03-01T10:05:34;7.50;99.90
4725;DHT22;2376;53.544;10.226;2023-03-01T10:08:14;7.30;99.90
4725;DHT22;2376;53.544;10.226;2023-03-01T10:10:47;7.70;99.90
4725;DHT22;2376;53.544;10.226;2023-03-01T10:13:19;7.80;99.90
4725;DHT22;2376;53.544;10.226;2023-03-01T10:15:50;7.80;99.90
4725;DHT22;2376;53.544;10.226;2023-03-01T10:18:22;8.00;99.90
4725;DHT22;2376;53.544;10.226;2023-03-01T10:20:55;8.10;99.90
4725;DHT22;2376;53.544;10.226;2023-03-01T10:23:23;7.90;99.90
4725;DHT22;2376;53.544;10.226;2023-03-01T10:26:07;7.90;99.90
4725;DHT22;2376;53.544;10.226;2023-03-01T10:28:41;7.80;99.90
4725;DHT22;2376;53.544;10.226;2023-03-01T10:31:13;7.70;99.90
4725;DHT22;2376;53.544;10.226;2023-03-01T10:33:41;7.90;99.90
4725;DHT22;2376;53.544;10.226;2023-03-01T10:36:09;8.30;99.90
4725;DHT22;2376;53.544;10.226;2023-03-01T10:38:48;8.00;99.90
4725;DHT22;2376;53.544;10.226;2023-03-01T10:41:18;8.00;99.90
4725;DHT22;2376;53.544;10.226;2023-03-01T10:43:47;8.30;99.90
4725;DHT22;2376;53.544;10.226;2023-03-01T10:46:25;8.60;99.90
4725;DHT22;2376;53.544;10.226;2023-03-01T10:49:13;8.30;99.90
4725;DHT22;2376;53.544;10.226;2023-03-01T10:51:43;8.40;99.90
4725;DHT22;2376;53.544;10.226;2023-03-01T10:54:16;8.50;99.90
4725;DHT22;2376;53.544;10.226;2023-03-01T10:56:48;8.50;99.90
4725;DHT22;2376;53.544;10.226;2023-03-01T10:59:31;8.50;99.90
4725;DHT22;2376;53.544;10.226;2023-03-01T11:02:04;8.60;99.90
4725;DHT22;2376;53.544;10.226;2023-03-01T11:04:39;8.90;99.90
4725;DHT22;2376;53.544;10.226;2023-03-01T11:07:08;9.00;99.90
4725;DHT22;2376;53.544;10.226;2023-03-01T11:09:35;8.50;99.90
4725;DHT22;2376;53.544;10.226;2023-03-01T11:12:11;8.80;99.90
4725;DHT22;2376;53.544;10.226;2023-03-01T11:14:46;9.00;99.90
4725;DHT22;2376;53.544;10.226;2023-03-01T11:17:16;8.50;99.90
4725;DHT22;2376;53.544;10.226;2023-03-01T11:19:59;8.30;99.90
4725;DHT22;2376;53.544;10.226;2023-03-01T11:22:28;8.50;99.90
4725;DHT22;2376;53.544;10.226;2023-03-01T11:24:57;8.80;99.90
4725;DHT22;2376;53.544;10.226;2023-03-01T11:27:26;8.70;99.90
4725;DHT22;2376;53.544;10.226;2023-03-01T11:29:55;8.60;99.90
4725;DHT22;2376;53.544;10.226;2023-03-01T11:32:26;8.90;99.90
4725;DHT22;2376;53.544;10.226;2023-03-01T11:34:57;9.00;99.90
4725;DHT22;2376;53.544;10.226;2023-03-01T11:37:33;9.20;99.90
4725;DHT22;2376;53.544;10.226;2023-03-01T11:40:10;9.20;99.90
4725;DHT22;2376;53.544;10.226;2023-03-01T11:42:46;9.60;99.90
4725;DHT22;2376;53.544;10.226;2023-03-01T11:45:14;9.90;99.90
4725;DHT22;2376;53.544;10.226;2023-03-01T11:47:59;9.80;99.90
4725;DHT22;2376;53.544;10.226;2023-03-01T11:50:30;9.30;99.90
4725;DHT22;2376;53.544;10.226;2023-03-01T11:53:19;9.10;99.90
4725;DHT22;2376;53.544;10.226;2023-03-01T11:56:05;9.20;99.90
4725;DHT22;2376;53.544;10.226;2023-03-01T11:58:49;9.30;99.90
4725;DHT22;2376;53.544;10.226;2023-03-01T12:01:38;9.50;99.90
4725;DHT22;2376;53.544;10.226;2023-03-01T12:04:30;9.90;99.90
4725;DHT22;2376;53.544;10.226;2023-03-01T12:07:00;9.70;99.90
4725;DHT22;2376;53.544;10.226;2023-03-01T12:09:38;9.30;99.90
4725;DHT22;2376;53.544;10.226;2023-03-01T12:12:38;9.60;99.90
4725;DHT22;2376;53.544;10.226;2023-03-01T12:15:31;9.80;99.90
4725;DHT22;2376;53.544;10.226;2023-03-01T12:20:59;10.30;99.90
4725;DHT22;2376;53.544;10.226;2023-03-01T12:23:42;10.30;99.90
4725;DHT22;2376;53.544;10.226;2023-03-01T12:26:20;9.70;99.90
4725;DHT22;2376;53.544;10.226;2023-03-01T12:29:02;9.50;99.90
4725;DHT22;2376;53.544;10.226;2023-03-01T12:31:51;10.00;99.90
4725;DHT22;2376;53.544;10.226;2023-03-01T12:34:35;10.10;99.90
4725;DHT22;2376;53.544;10.226;2023-03-01T12:37:15;9.70;99.90
4725;DHT22;2376;53.544;10.226;2023-03-01T12:39:56;10.10;99.90
4725;DHT22;2376;53.544;10.226;2023-03-01T12:42:33;10.40;99.90
4725;DHT22;2376;53.544;10.226;2023-03-01T12:45:29;10.50;99.90
4725;DHT22;2376;53.544;10.226;2023-03-01T12:48:17;10.90;99.90
4725;DHT22;2376;53.544;10.226;2023-03-01T12:50:48;11.20;99.90
4725;DHT22;2376;53.544;10.226;2023-03-01T12:53:22;11.40;99.90
4725;DHT22;2376;53.544;10.226;2023-03-01T12:55:50;10.90;99.90
4725;DHT22;2376;53.544;10.226;2023-03-01T12:58:25;10.80;99.90
4725;DHT22;2376;53.544;10.226;2023-03-01T13:01:03;10.70;99.90
4725;DHT22;2376;53.544;10.226;2023-03-01T13:03:38;10.70;99.90
4725;DHT22;2376;53.544;10.226;2023-03-01T13:06:15;10.90;99.90
4725;DHT22;2376;53.544;10.226;2023-03-01T13:08:48;11.10;99.90
4725;DHT22;2376;53.544;10.226;2023-03-01T13:11:18;11.10;99.90
4725;DHT22;2376;53.544;10.226;2023-03-01T13:13:47;10.90;99.90
4725;DHT22;2376;53.544;10.226;2023-03-01T13:19:10;10.70;99.90
4725;DHT22;2376;53.544;10.226;2023-03-01T13:21:39;10.50;99.90
4725;DHT22;2376;53.544;10.226;2023-03-01T13:24:24;10.50;99.90
4725;DHT22;2376;53.544;10.226;2023-03-01T13:27:09;10.30;99.90
4725;DHT22;2376;53.544;10.226;2023-03-01T13:29:46;10.30;99.90
4725;DHT22;2376;53.544;10.226;2023-03-01T13:32:21;10.20;99.90
4725;DHT22;2376;53.544;10.226;2023-03-01T13:34:53;10.40;99.90
4725;DHT22;2376;53.544;10.226;2023-03-01T13:37:32;10.80;99.90
4725;DHT22;2376;53.544;10.226;2023-03-01T13:40:03;10.70;99.90
4725;DHT22;2376;53.544;10.226;2023-03-01T13:42:34;10.70;99.90
4725;DHT22;2376;53.544;10.226;2023-03-01T13:45:12;10.60;99.90
4725;DHT22;2376;53.544;10.226;2023-03-01T13:47:41;10.60;99.90
4725;DHT22;2376;53.544;10.226;2023-03-01T13:50:16;10.70;99.90
4725;DHT22;2376;53.544;10.226;2023-03-01T13:52:48;10.60;99.90
4725;DHT22;2376;53.544;10.226;2023-03-01T13:55:18;10.70;98.90
4725;DHT22;2376;53.544;10.226;2023-03-01T13:57:48;10.50;99.10
4725;DHT22;2376;53.544;10.226;2023-03-01T14:00:32;10.30;99.90
4725;DHT22;2376;53.544;10.226;2023-03-01T14:03:01;10.60;99.00
4725;DHT22;2376;53.544;10.226;2023-03-01T14:05:29;10.80;98.80
4725;DHT22;2376;53.544;10.226;2023-03-01T14:07:56;11.20;97.70
4725;DHT22;2376;53.544;10.226;2023-03-01T14:10:26;11.30;97.40
4725;DHT22;2376;53.544;10.226;2023-03-01T14:13:01;11.20;97.70
4725;DHT22;2376;53.544;10.226;2023-03-01T14:15:34;11.40;97.30
4725;DHT22;2376;53.544;10.226;2023-03-01T14:18:06;11.50;95.40
4725;DHT22;2376;53.544;10.226;2023-03-01T14:20:40;11.20;95.00
4725;DHT22;2376;53.544;10.226;2023-03-01T14:23:11;11.10;94.60
4725;DHT22;2376;53.544;10.226;2023-03-01T14:25:38;10.90;95.50
4725;DHT22;2376;53.544;10.226;2023-03-01T14:28:16;11.30;95.70
4725;DHT22;2376;53.544;10.226;2023-03-01T14:30:46;11.60;94.60
4725;DHT22;2376;53.544;10.226;2023-03-01T14:33:23;11.80;93.30
4725;DHT22;2376;53.544;10.226;2023-03-01T14:35:58;11.30;93.60
4725;DHT22;2376;53.544;10.226;2023-03-01T14:38:31;11.00;93.70
4725;DHT22;2376;53.544;10.226;2023-03-01T14:41:00;10.60;95.90
4725;DHT22;2376;53.544;10.226;2023-03-01T14:43:29;11.00;95.30
4725;DHT22;2376;53.544;10.226;2023-03-01T14:45:58;11.20;94.60
4725;DHT22;2376;53.544;10.226;2023-03-01T14:48:27;11.00;94.50
4725;DHT22;2376;53.544;10.226;2023-03-01T14:50:54;11.10;93.80
4725;DHT22;2376;53.544;10.226;2023-03-01T14:53:24;11.10;93.10
4725;DHT22;2376;53.544;10.226;2023-03-01T14:55:54;11.10;92.50
4725;DHT22;2376;53.544;10.226;2023-03-01T14:58:22;10.90;91.70
4725;DHT22;2376;53.544;10.226;2023-03-01T15:00:53;11.20;92.10
4725;DHT22;2376;53.544;10.226;2023-03-01T15:03:27;11.10;91.60
4725;DHT22;2376;53.544;10.226;2023-03-01T15:05:56;11.00;91.10
4725;DHT22;2376;53.544;10.226;2023-03-01T15:08:24;10.40;91.80
4725;DHT22;2376;53.544;10.226;2023-03-01T15:10:58;10.10;92.70
4725;DHT22;2376;53.544;10.226;2023-03-01T15:13:29;10.10;92.30
4725;DHT22;2376;53.544;10.226;2023-03-01T15:16:03;10.00;92.40
4725;DHT22;2376;53.544;10.226;2023-03-01T15:18:32;10.50;91.10
4725;DHT22;2376;53.544;10.226;2023-03-01T15:21:06;10.80;90.50
4725;DHT22;2376;53.544;10.226;2023-03-01T15:23:34;10.60;90.80
4725;DHT22;2376;53.544;10.226;2023-03-01T15:26:03;10.40;90.70
4725;DHT22;2376;53.544;10.226;2023-03-01T15:28:32;10.10;91.70
4725;DHT22;2376;53.544;10.226;2023-03-01T15:31:02;10.10;92.00
4725;DHT22;2376;53.544;10.226;2023-03-01T15:33:34;10.50;91.70
4725;DHT22;2376;53.544;10.226;2023-03-01T15:36:03;10.60;91.10
4725;DHT22;2376;53.544;10.226;2023-03-01T15:38:35;10.40;91.10
4725;DHT22;2376;53.544;10.226;2023-03-01T15:41:19;10.10;91.20
4725;DHT22;2376;53.544;10.226;2023-03-01T15:43:47;9.90;91.10
4725;DHT22;2376;53.544;10.226;2023-03-01T15:46:21;9.60;93.00
4725;DHT22;2376;53.544;10.226;2023-03-01T15:48:53;9.80;93.30
4725;DHT22;2376;53.544;10.226;2023-03-01T15:51:27;10.10;92.50
4725;DHT22;2376;53.544;10.226;2023-03-01T15:53:55;10.20;92.10
4725;DHT22;2376;53.544;10.226;2023-03-01T15:56:24;9.80;93.00
4725;DHT22;2376;53.544;10.226;2023-03-01T15:58:50;9.40;94.30
4725;DHT22;2376;53.544;10.226;2023-03-01T16:01:17;9.30;95.60
4725;DHT22;2376;53.544;10.226;2023-03-01T16:03:44;9.50;96.60
4725;DHT22;2376;53.544;10.226;2023-03-01T16:06:12;9.70;95.70
4725;DHT22;2376;53.544;10.226;2023-03-01T16:08:39;9.90;95.10
4725;DHT22;2376;53.544;10.226;2023-03-01T16:11:13;9.50;95.80
4725;DHT22;2376;53.544;10.226;2023-03-01T16:13:40;9.30;96.60
4725;DHT22;2376;53.544;10.226;2023-03-01T16:16:09;9.40;96.70
4725;DHT22;2376;53.544;10.226;2023-03-01T16:18:38;9.50;96.70
4725;DHT22;2376;53.544;10.226;2023-03-01T16:21:05;9.60;96.60
4725;DHT22;2376;53.544;10.226;2023-03-01T16:23:33;9.40;96.30
4725;DHT22;2376;53.544;10.226;2023-03-01T16:25:59;9.30;96.90
4725;DHT22;2376;53.544;10.226;2023-03-01T16:28:26;9.30;97.40
4725;DHT22;2376;53.544;10.226;2023-03-01T16:30:53;9.10;98.10